Terminal Aerodrome Forecast
Issued by NWS

Home | Current Version | Previous Version | Text Only | Print | Product List | Glossary On
Versions: 1 2 3 4 5 6 7 8 9 10 11 12 13 14 15 16 17 18 19 20 21 22 23 24 25 26
000
FTUS42 KCAE 221400 AAA
TAFDNL
TAF AMD
KDNL 221406Z 2214/2312 03006KT P6SM VCSH BKN060 BKN100
      TEMPO 2214/2217 2SM TSRA BR BKN025CB
     FM221700 03008KT P6SM VCSH BKN045 BKN090
     FM221800 04007KT P6SM SCT040 BKN100
     FM222300 VRB05KT P6SM BKN250=

USA.gov is the U.S. government's official web portal to all federal, state and local government web resources and services.